Terminal Aerodrome Forecast
Issued by NWS Amarillo, TX

Home | Current Version | Previous Version | Text Only | Print | Product List | Glossary On
Versions: 1 2 3 4 5 6 7 8 9 10 11 12 13 14 15 16 17 18
000
FTUS44 KAMA 271128
TAFAMA
TAF
KAMA 271128Z 2712/2812 17014G20KT P6SM BKN200
     FM271600 24025G35KT P6SM SCT200
     FM280200 31011KT P6SM FEW100 SCT200
     FM280900 32009KT P6SM SCT100 SCT200=

USA.gov is the U.S. government's official web portal to all federal, state and local government web resources and services.